Dunmow, United Kingdom
Current Conditions -  °F | °C
As of 2:20 PM on Wednesday 28 Jan 2015 (Local Time) from EGSS Reporting Station
Scattered Clouds Scattered Clouds  
Wind Chill: 35°   Ceiling: Unl
Heat Index: 43°   Visibility: 6mi
Dew Point: 30°   Wind: 18mph
Humidity: 61%   Direction: 290°WNW
Pressure: 29.5"   Gusts: NA
Location:  51.87°N, 0.36°E
Report Text: EGSS 281420Z 29016KT 9999 FEW038 SCT046 06/M01 Q0999
Loading
Personal Weather Stations






























Interactive Weather Map New forecast layout! Learn more

10-Day Weather Forecast

Advertisements
Track Severe Weather on mobile